sensor_id;sensor_type;location;lat;lon;timestamp;pressure;altitude;pressure_sealevel;temperature;humidity
53246;BME280;39569;51.090;-1.786;2023-05-25T00:00:26;102020.34;;;21.96;42.35
53246;BME280;39569;51.090;-1.786;2023-05-25T00:02:53;102011.16;;;22.28;41.54
53246;BME280;39569;51.090;-1.786;2023-05-25T00:05:20;102016.28;;;22.12;42.17
53246;BME280;39569;51.090;-1.786;2023-05-25T00:07:52;102016.69;;;22.15;41.66
53246;BME280;39569;51.090;-1.786;2023-05-25T00:10:19;102006.59;;;22.22;42.13
53246;BME280;39569;51.090;-1.786;2023-05-25T00:12:46;102004.94;;;22.21;41.90
53246;BME280;39569;51.090;-1.786;2023-05-25T00:15:13;102008.53;;;22.09;41.67
53246;BME280;39569;51.090;-1.786;2023-05-25T00:17:41;102020.44;;;22.14;41.38
53246;BME280;39569;51.090;-1.786;2023-05-25T00:20:09;102019.09;;;21.99;42.33
53246;BME280;39569;51.090;-1.786;2023-05-25T00:22:38;102016.25;;;21.74;42.57
53246;BME280;39569;51.090;-1.786;2023-05-25T00:25:09;102009.75;;;21.82;42.30
53246;BME280;39569;51.090;-1.786;2023-05-25T00:27:36;102020.78;;;21.29;43.72
53246;BME280;39569;51.090;-1.786;2023-05-25T00:30:04;102025.25;;;21.68;43.01
53246;BME280;39569;51.090;-1.786;2023-05-25T00:32:31;102018.03;;;21.49;43.22
53246;BME280;39569;51.090;-1.786;2023-05-25T00:34:59;102017.34;;;21.60;43.13
53246;BME280;39569;51.090;-1.786;2023-05-25T00:37:26;102019.63;;;21.70;42.61
53246;BME280;39569;51.090;-1.786;2023-05-25T00:39:52;102015.06;;;21.57;43.03
53246;BME280;39569;51.090;-1.786;2023-05-25T00:42:19;102025.50;;;21.60;43.12
53246;BME280;39569;51.090;-1.786;2023-05-25T00:44:46;102036.03;;;21.37;42.99
53246;BME280;39569;51.090;-1.786;2023-05-25T00:47:15;102032.88;;;21.46;42.67
53246;BME280;39569;51.090;-1.786;2023-05-25T00:49:41;102041.25;;;21.38;42.76
53246;BME280;39569;51.090;-1.786;2023-05-25T00:52:11;102044.00;;;21.32;42.93
53246;BME280;39569;51.090;-1.786;2023-05-25T00:54:38;102051.34;;;21.18;43.05
53246;BME280;39569;51.090;-1.786;2023-05-25T00:57:06;102045.09;;;21.11;43.27
53246;BME280;39569;51.090;-1.786;2023-05-25T00:59:36;102065.75;;;21.12;43.33
53246;BME280;39569;51.090;-1.786;2023-05-25T01:02:07;102055.09;;;20.98;43.67
53246;BME280;39569;51.090;-1.786;2023-05-25T01:04:36;102069.50;;;20.85;43.80
53246;BME280;39569;51.090;-1.786;2023-05-25T01:07:06;102065.13;;;20.58;44.33
53246;BME280;39569;51.090;-1.786;2023-05-25T01:09:37;102067.63;;;20.73;43.98
53246;BME280;39569;51.090;-1.786;2023-05-25T01:12:06;102068.47;;;20.73;44.19
53246;BME280;39569;51.090;-1.786;2023-05-25T01:14:36;102078.69;;;20.65;44.89
53246;BME280;39569;51.090;-1.786;2023-05-25T01:17:04;102074.94;;;20.72;44.37
53246;BME280;39569;51.090;-1.786;2023-05-25T01:19:32;102076.41;;;20.75;44.22
53246;BME280;39569;51.090;-1.786;2023-05-25T01:22:04;102066.59;;;20.87;44.23
53246;BME280;39569;51.090;-1.786;2023-05-25T01:24:37;102072.84;;;20.94;44.07
53246;BME280;39569;51.090;-1.786;2023-05-25T01:27:12;102075.56;;;20.74;44.52
53246;BME280;39569;51.090;-1.786;2023-05-25T01:29:43;102073.91;;;20.93;44.03
53246;BME280;39569;51.090;-1.786;2023-05-25T01:32:12;102083.13;;;20.92;44.06
53246;BME280;39569;51.090;-1.786;2023-05-25T01:34:40;102075.78;;;20.79;44.27
53246;BME280;39569;51.090;-1.786;2023-05-25T01:37:10;102081.44;;;20.84;44.18
53246;BME280;39569;51.090;-1.786;2023-05-25T01:39:38;102074.31;;;20.83;43.93
53246;BME280;39569;51.090;-1.786;2023-05-25T01:42:05;102077.84;;;20.77;43.72
53246;BME280;39569;51.090;-1.786;2023-05-25T01:44:32;102070.56;;;20.78;43.87
53246;BME280;39569;51.090;-1.786;2023-05-25T01:47:03;102069.50;;;20.72;43.80
53246;BME280;39569;51.090;-1.786;2023-05-25T01:49:36;102069.72;;;20.71;44.03
53246;BME280;39569;51.090;-1.786;2023-05-25T01:52:16;102076.38;;;20.68;44.04
53246;BME280;39569;51.090;-1.786;2023-05-25T01:54:47;102075.56;;;20.68;43.95
53246;BME280;39569;51.090;-1.786;2023-05-25T01:57:17;102075.47;;;20.22;44.81
53246;BME280;39569;51.090;-1.786;2023-05-25T01:59:46;102081.78;;;20.42;44.50
53246;BME280;39569;51.090;-1.786;2023-05-25T02:02:14;102084.72;;;20.47;44.32
53246;BME280;39569;51.090;-1.786;2023-05-25T02:04:41;102080.34;;;20.46;44.36
53246;BME280;39569;51.090;-1.786;2023-05-25T02:07:09;102079.91;;;20.36;44.60
53246;BME280;39569;51.090;-1.786;2023-05-25T02:09:37;102088.06;;;20.36;44.54
53246;BME280;39569;51.090;-1.786;2023-05-25T02:12:04;102094.28;;;20.36;44.61
53246;BME280;39569;51.090;-1.786;2023-05-25T02:14:31;102085.94;;;20.31;44.36
53246;BME280;39569;51.090;-1.786;2023-05-25T02:16:58;102097.22;;;20.28;44.68
53246;BME280;39569;51.090;-1.786;2023-05-25T02:19:26;102095.56;;;20.34;44.81
53246;BME280;39569;51.090;-1.786;2023-05-25T02:21:53;102099.72;;;20.23;44.87
53246;BME280;39569;51.090;-1.786;2023-05-25T02:24:21;102096.56;;;20.26;44.74
53246;BME280;39569;51.090;-1.786;2023-05-25T02:26:50;102094.94;;;20.32;44.81
53246;BME280;39569;51.090;-1.786;2023-05-25T02:29:17;102090.75;;;20.36;44.59
53246;BME280;39569;51.090;-1.786;2023-05-25T02:31:44;102097.63;;;20.32;44.76
53246;BME280;39569;51.090;-1.786;2023-05-25T02:34:10;102095.09;;;20.24;44.94
53246;BME280;39569;51.090;-1.786;2023-05-25T02:36:38;102097.22;;;20.28;44.84
53246;BME280;39569;51.090;-1.786;2023-05-25T02:39:08;102094.28;;;20.36;44.70
53246;BME280;39569;51.090;-1.786;2023-05-25T02:41:35;102093.88;;;20.33;44.85
53246;BME280;39569;51.090;-1.786;2023-05-25T02:44:05;102085.94;;;20.25;45.03
53246;BME280;39569;51.090;-1.786;2023-05-25T02:46:32;102083.44;;;20.23;45.14
53246;BME280;39569;51.090;-1.786;2023-05-25T02:48:59;102085.50;;;20.28;45.12
53246;BME280;39569;51.090;-1.786;2023-05-25T02:51:26;102090.13;;;20.34;44.98
53246;BME280;39569;51.090;-1.786;2023-05-25T02:53:52;102083.66;;;20.28;45.00
53246;BME280;39569;51.090;-1.786;2023-05-25T02:56:19;102090.13;;;20.34;44.83
53246;BME280;39569;51.090;-1.786;2023-05-25T02:58:47;102098.69;;;20.37;44.76
53246;BME280;39569;51.090;-1.786;2023-05-25T03:01:15;102087.31;;;20.14;45.21
53246;BME280;39569;51.090;-1.786;2023-05-25T03:03:43;102091.25;;;19.99;45.55
53246;BME280;39569;51.090;-1.786;2023-05-25T03:06:10;102096.09;;;20.16;44.99
53246;BME280;39569;51.090;-1.786;2023-05-25T03:08:38;102100.44;;;20.11;45.05
53246;BME280;39569;51.090;-1.786;2023-05-25T03:11:05;102105.44;;;20.07;44.74
53246;BME280;39569;51.090;-1.786;2023-05-25T03:13:32;102107.09;;;19.95;45.09
53246;BME280;39569;51.090;-1.786;2023-05-25T03:15:59;102116.59;;;19.85;45.43
53246;BME280;39569;51.090;-1.786;2023-05-25T03:18:27;102112.50;;;19.95;45.27
53246;BME280;39569;51.090;-1.786;2023-05-25T03:20:54;102114.16;;;19.96;45.28
53246;BME280;39569;51.090;-1.786;2023-05-25T03:23:21;102109.59;;;20.03;45.20
53246;BME280;39569;51.090;-1.786;2023-05-25T03:25:48;102105.44;;;20.01;45.29
53246;BME280;39569;51.090;-1.786;2023-05-25T03:28:15;102105.75;;;19.85;45.55
53246;BME280;39569;51.090;-1.786;2023-05-25T03:30:41;102107.91;;;19.96;45.45
53246;BME280;39569;51.090;-1.786;2023-05-25T03:33:08;102113.97;;;19.98;45.57
53246;BME280;39569;51.090;-1.786;2023-05-25T03:35:36;102097.25;;;19.94;45.74
53246;BME280;39569;51.090;-1.786;2023-05-25T03:38:03;102106.81;;;19.84;46.02
53246;BME280;39569;51.090;-1.786;2023-05-25T03:40:30;102108.16;;;20.01;45.72
53246;BME280;39569;51.090;-1.786;2023-05-25T03:42:56;102097.28;;;20.01;45.85
53246;BME280;39569;51.090;-1.786;2023-05-25T03:45:23;102106.88;;;20.03;45.74
53246;BME280;39569;51.090;-1.786;2023-05-25T03:47:50;102098.31;;;20.00;45.68
53246;BME280;39569;51.090;-1.786;2023-05-25T03:50:16;102097.53;;;20.06;45.51
53246;BME280;39569;51.090;-1.786;2023-05-25T03:52:45;102098.09;;;19.95;45.66
53246;BME280;39569;51.090;-1.786;2023-05-25T03:55:12;102103.88;;;19.85;45.67
53246;BME280;39569;51.090;-1.786;2023-05-25T03:57:39;102101.59;;;19.82;46.13
53246;BME280;39569;51.090;-1.786;2023-05-25T04:00:07;102097.88;;;19.96;45.88
53246;BME280;39569;51.090;-1.786;2023-05-25T04:02:35;102109.94;;;19.87;45.97
53246;BME280;39569;51.090;-1.786;2023-05-25T04:05:02;102113.31;;;19.96;46.02
53246;BME280;39569;51.090;-1.786;2023-05-25T04:07:29;102114.56;;;19.93;45.86
53246;BME280;39569;51.090;-1.786;2023-05-25T04:09:57;102112.53;;;20.02;45.76
53246;BME280;39569;51.090;-1.786;2023-05-25T04:12:24;102113.31;;;19.96;45.91
53246;BME280;39569;51.090;-1.786;2023-05-25T04:14:51;102114.34;;;19.88;46.21
53246;BME280;39569;51.090;-1.786;2023-05-25T04:17:18;102112.06;;;19.92;46.10
53246;BME280;39569;51.090;-1.786;2023-05-25T04:19:46;102108.94;;;19.95;45.99
53246;BME280;39569;51.090;-1.786;2023-05-25T04:22:13;102105.66;;;19.99;45.94
53246;BME280;39569;51.090;-1.786;2023-05-25T04:24:40;102110.59;;;19.89;46.05
53246;BME280;39569;51.090;-1.786;2023-05-25T04:27:08;102113.94;;;19.91;46.07
53246;BME280;39569;51.090;-1.786;2023-05-25T04:29:35;102114.59;;;20.00;45.78
53246;BME280;39569;51.090;-1.786;2023-05-25T04:32:02;102108.34;;;19.99;45.86
53246;BME280;39569;51.090;-1.786;2023-05-25T04:34:29;102122.28;;;19.90;45.98
53246;BME280;39569;51.090;-1.786;2023-05-25T04:36:58;102117.31;;;20.00;45.85
53246;BME280;39569;51.090;-1.786;2023-05-25T04:39:30;102123.38;;;20.02;45.84
53246;BME280;39569;51.090;-1.786;2023-05-25T04:41:56;102126.94;;;20.02;46.03
53246;BME280;39569;51.090;-1.786;2023-05-25T04:44:24;102121.13;;;20.12;45.66
53246;BME280;39569;51.090;-1.786;2023-05-25T04:46:54;102126.34;;;20.13;45.80
53246;BME280;39569;51.090;-1.786;2023-05-25T04:49:21;102129.06;;;20.13;45.86
53246;BME280;39569;51.090;-1.786;2023-05-25T04:51:47;102131.13;;;20.05;46.29
53246;BME280;39569;51.090;-1.786;2023-05-25T04:54:14;102133.25;;;20.16;46.29
53246;BME280;39569;51.090;-1.786;2023-05-25T04:56:41;102131.47;;;20.36;46.12
53246;BME280;39569;51.090;-1.786;2023-05-25T04:59:08;102142.97;;;20.44;46.06
53246;BME280;39569;51.090;-1.786;2023-05-25T05:01:36;102140.53;;;20.69;45.69
53246;BME280;39569;51.090;-1.786;2023-05-25T05:04:05;102145.09;;;20.55;46.11
53246;BME280;39569;51.090;-1.786;2023-05-25T05:06:32;102145.50;;;20.52;46.16
53246;BME280;39569;51.090;-1.786;2023-05-25T05:08:59;102152.03;;;20.78;45.80
53246;BME280;39569;51.090;-1.786;2023-05-25T05:11:26;102151.56;;;20.54;46.42
53246;BME280;39569;51.090;-1.786;2023-05-25T05:13:53;102130.03;;;20.46;46.19
53246;BME280;39569;51.090;-1.786;2023-05-25T05:16:20;102169.41;;;20.90;46.19
53246;BME280;39569;51.090;-1.786;2023-05-25T05:18:49;102166.31;;;21.12;45.30
53246;BME280;39569;51.090;-1.786;2023-05-25T05:21:15;102171.75;;;21.38;44.74
53246;BME280;39569;51.090;-1.786;2023-05-25T05:23:42;102169.84;;;21.52;44.75
53246;BME280;39569;51.090;-1.786;2023-05-25T05:26:09;102170.06;;;21.64;44.77
53246;BME280;39569;51.090;-1.786;2023-05-25T05:28:39;102162.09;;;21.69;44.34
53246;BME280;39569;51.090;-1.786;2023-05-25T05:31:06;102166.28;;;21.71;44.92
53246;BME280;39569;51.090;-1.786;2023-05-25T05:33:32;102168.97;;;21.78;44.57
53246;BME280;39569;51.090;-1.786;2023-05-25T05:36:01;102181.53;;;21.72;44.67
53246;BME280;39569;51.090;-1.786;2023-05-25T05:38:29;102180.06;;;21.76;44.88
53246;BME280;39569;51.090;-1.786;2023-05-25T05:40:56;102173.19;;;21.80;44.54
53246;BME280;39569;51.090;-1.786;2023-05-25T05:43:22;102174.22;;;21.73;44.65
53246;BME280;39569;51.090;-1.786;2023-05-25T05:45:49;102182.34;;;21.92;44.29
53246;BME280;39569;51.090;-1.786;2023-05-25T05:48:16;102165.53;;;22.15;44.05
53246;BME280;39569;51.090;-1.786;2023-05-25T05:50:42;102165.88;;;21.81;44.24
53246;BME280;39569;51.090;-1.786;2023-05-25T05:53:11;102166.44;;;22.02;44.18
53246;BME280;39569;51.090;-1.786;2023-05-25T05:55:38;102162.19;;;22.13;44.51
53246;BME280;39569;51.090;-1.786;2023-05-25T05:58:05;102174.19;;;21.99;44.20
53246;BME280;39569;51.090;-1.786;2023-05-25T06:00:31;102172.75;;;21.90;44.27
53246;BME280;39569;51.090;-1.786;2023-05-25T06:02:58;102175.81;;;22.19;44.27
53246;BME280;39569;51.090;-1.786;2023-05-25T06:05:25;102173.22;;;22.31;44.25
53246;BME280;39569;51.090;-1.786;2023-05-25T06:07:52;102171.41;;;22.63;43.74
53246;BME280;39569;51.090;-1.786;2023-05-25T06:10:20;102178.09;;;22.73;43.13
53246;BME280;39569;51.090;-1.786;2023-05-25T06:12:47;102173.34;;;22.56;44.09
53246;BME280;39569;51.090;-1.786;2023-05-25T06:15:14;102174.13;;;23.00;42.86
53246;BME280;39569;51.090;-1.786;2023-05-25T06:17:41;102173.28;;;23.00;42.67
53246;BME280;39569;51.090;-1.786;2023-05-25T06:20:09;102182.03;;;23.08;43.37
53246;BME280;39569;51.090;-1.786;2023-05-25T06:22:36;102179.38;;;23.26;43.24
53246;BME280;39569;51.090;-1.786;2023-05-25T06:25:03;102181.59;;;23.11;43.54
53246;BME280;39569;51.090;-1.786;2023-05-25T06:27:32;102188.59;;;23.57;42.46
53246;BME280;39569;51.090;-1.786;2023-05-25T06:29:58;102185.63;;;23.58;42.59
53246;BME280;39569;51.090;-1.786;2023-05-25T06:32:25;102183.56;;;23.72;42.51
53246;BME280;39569;51.090;-1.786;2023-05-25T06:34:52;102182.19;;;23.63;42.32
53246;BME280;39569;51.090;-1.786;2023-05-25T06:37:18;102190.88;;;23.78;42.04
53246;BME280;39569;51.090;-1.786;2023-05-25T06:39:46;102191.72;;;23.78;41.86
53246;BME280;39569;51.090;-1.786;2023-05-25T06:42:12;102198.47;;;23.94;41.87
53246;BME280;39569;51.090;-1.786;2023-05-25T06:44:41;102192.13;;;24.18;41.52
53246;BME280;39569;51.090;-1.786;2023-05-25T06:47:07;102199.13;;;24.14;41.39
53246;BME280;39569;51.090;-1.786;2023-05-25T06:49:34;102200.41;;;24.29;41.19
53246;BME280;39569;51.090;-1.786;2023-05-25T06:52:01;102193.56;;;24.38;40.74
53246;BME280;39569;51.090;-1.786;2023-05-25T06:54:27;102199.88;;;24.69;40.46
53246;BME280;39569;51.090;-1.786;2023-05-25T06:56:54;102193.94;;;24.90;39.98
53246;BME280;39569;51.090;-1.786;2023-05-25T06:59:21;102192.22;;;24.77;40.00
53246;BME280;39569;51.090;-1.786;2023-05-25T07:01:49;102194.22;;;25.11;39.57
53246;BME280;39569;51.090;-1.786;2023-05-25T07:04:16;102190.44;;;24.83;40.08
53246;BME280;39569;51.090;-1.786;2023-05-25T07:06:43;102195.56;;;24.61;40.22
53246;BME280;39569;51.090;-1.786;2023-05-25T07:09:10;102193.16;;;25.12;39.55
53246;BME280;39569;51.090;-1.786;2023-05-25T07:11:37;102191.81;;;25.03;39.48
53246;BME280;39569;51.090;-1.786;2023-05-25T07:14:03;102198.00;;;25.10;39.36
53246;BME280;39569;51.090;-1.786;2023-05-25T07:16:30;102201.25;;;25.19;39.58
53246;BME280;39569;51.090;-1.786;2023-05-25T07:18:58;102195.69;;;25.37;39.09
53246;BME280;39569;51.090;-1.786;2023-05-25T07:21:25;102199.19;;;24.91;40.21
53246;BME280;39569;51.090;-1.786;2023-05-25T07:23:52;102202.44;;;25.11;39.57
53246;BME280;39569;51.090;-1.786;2023-05-25T07:26:19;102207.81;;;25.29;39.60
53246;BME280;39569;51.090;-1.786;2023-05-25T07:28:47;102201.94;;;25.03;40.14
53246;BME280;39569;51.090;-1.786;2023-05-25T07:31:14;102208.72;;;25.42;39.25
53246;BME280;39569;51.090;-1.786;2023-05-25T07:33:40;102215.34;;;25.34;39.71
53246;BME280;39569;51.090;-1.786;2023-05-25T07:36:09;102211.75;;;25.33;39.74
53246;BME280;39569;51.090;-1.786;2023-05-25T07:38:36;102220.16;;;25.20;40.37
53246;BME280;39569;51.090;-1.786;2023-05-25T07:41:03;102220.28;;;25.25;40.00
53246;BME280;39569;51.090;-1.786;2023-05-25T07:43:30;102222.31;;;25.18;40.41
53246;BME280;39569;51.090;-1.786;2023-05-25T07:45:57;102223.91;;;25.38;39.74
53246;BME280;39569;51.090;-1.786;2023-05-25T07:48:23;102224.53;;;25.63;38.94
53246;BME280;39569;51.090;-1.786;2023-05-25T07:50:50;102231.22;;;25.44;39.60
53246;BME280;39569;51.090;-1.786;2023-05-25T07:53:18;102228.34;;;25.50;39.17
53246;BME280;39569;51.090;-1.786;2023-05-25T07:55:45;102228.47;;;25.44;39.94
53246;BME280;39569;51.090;-1.786;2023-05-25T07:58:12;102237.44;;;25.32;39.68
53246;BME280;39569;51.090;-1.786;2023-05-25T08:00:39;102240.13;;;25.51;39.27
53246;BME280;39569;51.090;-1.786;2023-05-25T08:03:06;102239.03;;;25.52;38.45
53246;BME280;39569;51.090;-1.786;2023-05-25T08:05:33;102240.94;;;25.51;39.04
53246;BME280;39569;51.090;-1.786;2023-05-25T08:07:59;102240.88;;;25.69;38.93
53246;BME280;39569;51.090;-1.786;2023-05-25T08:10:27;102248.72;;;25.66;39.16
53246;BME280;39569;51.090;-1.786;2023-05-25T08:12:56;102242.66;;;25.64;39.23
53246;BME280;39569;51.090;-1.786;2023-05-25T08:15:23;102239.44;;;25.67;38.86
53246;BME280;39569;51.090;-1.786;2023-05-25T08:17:50;102243.34;;;25.94;38.28
53246;BME280;39569;51.090;-1.786;2023-05-25T08:20:17;102251.94;;;25.74;38.14
53246;BME280;39569;51.090;-1.786;2023-05-25T08:22:44;102242.75;;;25.92;38.32
53246;BME280;39569;51.090;-1.786;2023-05-25T08:25:11;102248.81;;;25.94;38.16
53246;BME280;39569;51.090;-1.786;2023-05-25T08:27:39;102256.72;;;26.13;37.91
53246;BME280;39569;51.090;-1.786;2023-05-25T08:30:06;102251.59;;;26.17;38.07
53246;BME280;39569;51.090;-1.786;2023-05-25T08:32:33;102246.22;;;26.22;38.43
53246;BME280;39569;51.090;-1.786;2023-05-25T08:35:00;102246.69;;;26.31;37.86
53246;BME280;39569;51.090;-1.786;2023-05-25T08:37:27;102244.75;;;26.43;38.68
53246;BME280;39569;51.090;-1.786;2023-05-25T08:39:54;102247.13;;;26.51;37.22
53246;BME280;39569;51.090;-1.786;2023-05-25T08:42:21;102240.91;;;27.40;35.76
53246;BME280;39569;51.090;-1.786;2023-05-25T08:44:50;102249.16;;;27.73;33.69
53246;BME280;39569;51.090;-1.786;2023-05-25T08:47:20;102241.22;;;27.76;34.22
53246;BME280;39569;51.090;-1.786;2023-05-25T08:49:48;102248.28;;;28.05;34.08
53246;BME280;39569;51.090;-1.786;2023-05-25T08:52:20;102244.00;;;27.60;33.61
53246;BME280;39569;51.090;-1.786;2023-05-25T08:54:50;102244.41;;;28.45;33.25
53246;BME280;39569;51.090;-1.786;2023-05-25T08:57:20;102240.69;;;28.99;33.10
53246;BME280;39569;51.090;-1.786;2023-05-25T08:59:53;102243.31;;;29.42;32.60
53246;BME280;39569;51.090;-1.786;2023-05-25T09:02:28;102248.06;;;29.52;31.76
53246;BME280;39569;51.090;-1.786;2023-05-25T09:04:58;102236.09;;;29.36;31.99
53246;BME280;39569;51.090;-1.786;2023-05-25T09:07:25;102238.09;;;29.77;31.43
53246;BME280;39569;51.090;-1.786;2023-05-25T09:09:53;102233.44;;;29.78;30.88
53246;BME280;39569;51.090;-1.786;2023-05-25T09:12:21;102235.16;;;29.94;31.34
53246;BME280;39569;51.090;-1.786;2023-05-25T09:14:48;102227.84;;;30.10;31.17
53246;BME280;39569;51.090;-1.786;2023-05-25T09:17:16;102237.84;;;30.92;29.92
53246;BME280;39569;51.090;-1.786;2023-05-25T09:19:45;102235.03;;;30.77;31.41
53246;BME280;39569;51.090;-1.786;2023-05-25T09:22:11;102224.91;;;31.23;30.29
53246;BME280;39569;51.090;-1.786;2023-05-25T09:24:38;102225.75;;;31.29;28.30
53246;BME280;39569;51.090;-1.786;2023-05-25T09:27:05;102222.44;;;31.32;28.27
53246;BME280;39569;51.090;-1.786;2023-05-25T09:29:32;102220.50;;;31.62;27.55
53246;BME280;39569;51.090;-1.786;2023-05-25T09:31:59;102223.56;;;31.46;27.94
53246;BME280;39569;51.090;-1.786;2023-05-25T09:34:30;102228.53;;;31.69;30.30
53246;BME280;39569;51.090;-1.786;2023-05-25T09:36:58;102237.31;;;32.06;27.02
53246;BME280;39569;51.090;-1.786;2023-05-25T09:39:25;102229.59;;;31.98;27.69
53246;BME280;39569;51.090;-1.786;2023-05-25T09:41:52;102230.50;;;32.57;26.83
53246;BME280;39569;51.090;-1.786;2023-05-25T09:44:19;102225.56;;;32.98;26.23
53246;BME280;39569;51.090;-1.786;2023-05-25T09:46:46;102217.47;;;33.07;27.69
53246;BME280;39569;51.090;-1.786;2023-05-25T09:49:13;102220.91;;;33.61;25.70
53246;BME280;39569;51.090;-1.786;2023-05-25T09:51:41;102216.22;;;33.28;28.05
53246;BME280;39569;51.090;-1.786;2023-05-25T09:54:09;102217.34;;;33.27;27.00
53246;BME280;39569;51.090;-1.786;2023-05-25T09:56:36;102218.97;;;32.30;26.79
53246;BME280;39569;51.090;-1.786;2023-05-25T09:59:03;102214.41;;;32.64;27.53
53246;BME280;39569;51.090;-1.786;2023-05-25T10:01:31;102208.31;;;32.67;27.16
53246;BME280;39569;51.090;-1.786;2023-05-25T10:03:58;102201.75;;;33.36;26.32
53246;BME280;39569;51.090;-1.786;2023-05-25T10:06:26;102204.59;;;33.83;26.64
53246;BME280;39569;51.090;-1.786;2023-05-25T10:08:56;102208.03;;;32.69;27.46
53246;BME280;39569;51.090;-1.786;2023-05-25T10:11:24;102212.59;;;32.35;27.43
53246;BME280;39569;51.090;-1.786;2023-05-25T10:13:52;102216.81;;;32.17;28.39
53246;BME280;39569;51.090;-1.786;2023-05-25T10:16:24;102211.13;;;32.57;28.31
53246;BME280;39569;51.090;-1.786;2023-05-25T10:18:56;102204.81;;;32.91;28.00
53246;BME280;39569;51.090;-1.786;2023-05-25T10:21:26;102208.63;;;33.05;26.97
53246;BME280;39569;51.090;-1.786;2023-05-25T10:24:02;102203.50;;;32.83;25.27
53246;BME280;39569;51.090;-1.786;2023-05-25T10:26:32;102205.97;;;32.84;25.95
53246;BME280;39569;51.090;-1.786;2023-05-25T10:29:01;102204.13;;;32.75;26.74
53246;BME280;39569;51.090;-1.786;2023-05-25T10:31:30;102201.75;;;33.31;26.54
53246;BME280;39569;51.090;-1.786;2023-05-25T10:33:58;102201.56;;;33.56;27.86
53246;BME280;39569;51.090;-1.786;2023-05-25T10:36:26;102205.66;;;32.96;26.94
53246;BME280;39569;51.090;-1.786;2023-05-25T10:38:53;102209.22;;;33.64;26.21
53246;BME280;39569;51.090;-1.786;2023-05-25T10:41:22;102207.94;;;34.09;27.16
53246;BME280;39569;51.090;-1.786;2023-05-25T10:43:49;102202.22;;;34.00;24.80
53246;BME280;39569;51.090;-1.786;2023-05-25T10:46:17;102206.00;;;34.56;24.06
53246;BME280;39569;51.090;-1.786;2023-05-25T10:48:45;102207.72;;;34.71;24.72
53246;BME280;39569;51.090;-1.786;2023-05-25T10:51:13;102205.88;;;33.96;27.82
53246;BME280;39569;51.090;-1.786;2023-05-25T10:53:42;102216.41;;;34.64;24.54
53246;BME280;39569;51.090;-1.786;2023-05-25T10:56:10;102211.84;;;34.08;23.66
53246;BME280;39569;51.090;-1.786;2023-05-25T10:58:41;102209.38;;;33.78;25.08
53246;BME280;39569;51.090;-1.786;2023-05-25T11:01:10;102212.69;;;33.80;25.10
53246;BME280;39569;51.090;-1.786;2023-05-25T11:03:56;102205.00;;;33.71;24.49
53246;BME280;39569;51.090;-1.786;2023-05-25T11:09:29;102201.22;;;33.62;25.82
53246;BME280;39569;51.090;-1.786;2023-05-25T11:12:05;102204.91;;;32.80;25.33
53246;BME280;39569;51.090;-1.786;2023-05-25T11:14:35;102203.69;;;33.35;24.13
53246;BME280;39569;51.090;-1.786;2023-05-25T11:17:07;102201.81;;;33.59;26.36
53246;BME280;39569;51.090;-1.786;2023-05-25T11:19:40;102204.63;;;32.18;25.49
53246;BME280;39569;51.090;-1.786;2023-05-25T11:22:14;102193.09;;;33.09;24.54
53246;BME280;39569;51.090;-1.786;2023-05-25T11:24:42;102204.03;;;33.86;23.42
53246;BME280;39569;51.090;-1.786;2023-05-25T11:27:10;102196.25;;;34.35;23.11
53246;BME280;39569;51.090;-1.786;2023-05-25T11:29:39;102200.13;;;34.58;20.76
53246;BME280;39569;51.090;-1.786;2023-05-25T11:32:11;102206.50;;;34.77;22.77
53246;BME280;39569;51.090;-1.786;2023-05-25T11:34:39;102190.53;;;34.03;23.08
53246;BME280;39569;51.090;-1.786;2023-05-25T11:37:11;102193.00;;;34.28;22.56
53246;BME280;39569;51.090;-1.786;2023-05-25T11:39:40;102191.50;;;35.29;21.88
53246;BME280;39569;51.090;-1.786;2023-05-25T11:42:08;102189.91;;;34.91;22.16
53246;BME280;39569;51.090;-1.786;2023-05-25T11:44:37;102196.34;;;34.86;21.37
53246;BME280;39569;51.090;-1.786;2023-05-25T11:47:07;102188.28;;;34.71;21.95
53246;BME280;39569;51.090;-1.786;2023-05-25T11:49:38;102181.78;;;35.13;22.20
53246;BME280;39569;51.090;-1.786;2023-05-25T11:52:06;102185.63;;;34.80;22.08
53246;BME280;39569;51.090;-1.786;2023-05-25T11:54:33;102183.47;;;34.77;21.16
53246;BME280;39569;51.090;-1.786;2023-05-25T11:57:00;102170.00;;;35.21;21.93
53246;BME280;39569;51.090;-1.786;2023-05-25T11:59:28;102181.31;;;34.31;22.19
53246;BME280;39569;51.090;-1.786;2023-05-25T12:01:57;102185.13;;;34.96;21.25
53246;BME280;39569;51.090;-1.786;2023-05-25T12:04:25;102176.31;;;34.89;22.47
53246;BME280;39569;51.090;-1.786;2023-05-25T12:06:52;102171.16;;;35.01;20.63
53246;BME280;39569;51.090;-1.786;2023-05-25T12:09:19;102172.09;;;35.10;20.90
53246;BME280;39569;51.090;-1.786;2023-05-25T12:11:47;102178.50;;;34.74;20.80
53246;BME280;39569;51.090;-1.786;2023-05-25T12:14:14;102170.41;;;34.96;21.49
53246;BME280;39569;51.090;-1.786;2023-05-25T12:16:41;102181.50;;;34.58;22.97
53246;BME280;39569;51.090;-1.786;2023-05-25T12:19:10;102182.25;;;34.83;22.88
53246;BME280;39569;51.090;-1.786;2023-05-25T12:21:38;102174.22;;;35.64;20.94
53246;BME280;39569;51.090;-1.786;2023-05-25T12:24:06;102174.75;;;35.52;20.95
53246;BME280;39569;51.090;-1.786;2023-05-25T12:26:33;102181.25;;;35.89;20.17
53246;BME280;39569;51.090;-1.786;2023-05-25T12:29:02;102182.19;;;35.84;20.80
53246;BME280;39569;51.090;-1.786;2023-05-25T12:31:30;102173.19;;;35.74;20.22
53246;BME280;39569;51.090;-1.786;2023-05-25T12:34:02;102184.66;;;35.99;21.14
53246;BME280;39569;51.090;-1.786;2023-05-25T12:36:39;102180.13;;;36.17;20.24
53246;BME280;39569;51.090;-1.786;2023-05-25T12:39:06;102184.28;;;36.06;22.30
53246;BME280;39569;51.090;-1.786;2023-05-25T12:41:48;102179.88;;;35.59;20.90
53246;BME280;39569;51.090;-1.786;2023-05-25T12:44:16;102170.66;;;36.04;19.91
53246;BME280;39569;51.090;-1.786;2023-05-25T12:46:43;102180.88;;;35.49;20.09